Time;durP1;ratioP1;P1;durP2;ratioP2;P2;SDS_P1;SDS_P2;PMS_P1;PMS_P2;Temp;Humidity;BMP_temperature;BMP_pressure;BME280_temperature;BME280_humidity;BME280_pressure;Samples;Min_cycle;Max_cycle;Signal;HPM_P1;HPM_P2
2022/07/15 00:01:07;;;;;;;1.33;0.80;;;14.60;59.70;;;;;;610316;236;26638;-71
2022/07/15 00:03:35;;;;;;;0.70;0.70;;;14.50;60.00;;;;;;610197;236;26853;-71
2022/07/15 00:06:02;;;;;;;0.50;0.50;;;14.50;60.20;;;;;;610199;236;27252;-71
2022/07/15 00:08:30;;;;;;;1.95;0.80;;;14.50;60.00;;;;;;610157;235;26624;-71
2022/07/15 00:10:57;;;;;;;2.67;0.82;;;14.40;60.00;;;;;;610175;236;27537;-71
2022/07/15 00:13:25;;;;;;;1.75;0.88;;;14.40;60.50;;;;;;610144;235;26620;-71
2022/07/15 00:15:53;;;;;;;1.52;0.80;;;14.40;60.80;;;;;;610180;235;26612;-71
2022/07/15 00:18:21;;;;;;;1.35;0.70;;;14.30;60.90;;;;;;610094;236;26620;-71
2022/07/15 00:20:48;;;;;;;0.80;0.80;;;14.30;60.90;;;;;;609878;236;26713;-71
2022/07/15 00:23:16;;;;;;;0.88;0.85;;;14.30;61.00;;;;;;609861;236;26962;-71
2022/07/15 00:25:44;;;;;;;3.37;1.00;;;14.20;60.90;;;;;;609858;236;26839;-71
2022/07/15 00:28:11;;;;;;;0.70;0.70;;;14.30;61.20;;;;;;609850;236;26634;-72
2022/07/15 00:30:38;;;;;;;0.80;0.80;;;14.30;61.30;;;;;;610168;236;27082;-72
2022/07/15 00:33:05;;;;;;;0.60;0.60;;;14.20;61.50;;;;;;610213;235;26585;-72
2022/07/15 00:35:32;;;;;;;1.95;0.70;;;14.20;61.70;;;;;;610258;236;26818;-71
2022/07/15 00:38:00;;;;;;;2.42;0.77;;;14.20;62.00;;;;;;609867;235;26577;-71
2022/07/15 00:40:27;;;;;;;1.60;1.02;;;14.10;61.90;;;;;;609797;236;26592;-71
2022/07/15 00:42:55;;;;;;;0.52;0.52;;;14.10;62.00;;;;;;609766;235;26615;-71
2022/07/15 00:45:23;;;;;;;1.20;0.73;;;14.00;62.30;;;;;;609873;235;26586;-72
2022/07/15 00:47:51;;;;;;;1.15;0.60;;;14.00;62.50;;;;;;609797;236;26620;-71
2022/07/15 00:50:18;;;;;;;1.23;0.80;;;14.00;62.50;;;;;;609810;236;26612;-72
2022/07/15 00:52:45;;;;;;;1.35;0.93;;;14.00;62.60;;;;;;609772;235;26638;-71
2022/07/15 00:55:12;;;;;;;0.95;0.88;;;13.90;63.00;;;;;;610628;233;26855;-71
2022/07/15 00:57:40;;;;;;;0.85;0.65;;;13.90;63.60;;;;;;611095;234;26592;-71
2022/07/15 01:00:11;;;;;;;1.37;0.70;;;13.90;64.00;;;;;;610651;235;26649;-71
2022/07/15 01:02:39;;;;;;;0.70;0.70;;;13.80;64.50;;;;;;610718;235;27298;-71
2022/07/15 01:05:07;;;;;;;1.00;0.68;;;13.80;64.30;;;;;;610428;235;26584;-71
2022/07/15 01:07:34;;;;;;;0.80;0.80;;;13.80;64.70;;;;;;610378;235;26593;-71
2022/07/15 01:10:01;;;;;;;0.82;0.80;;;13.70;65.10;;;;;;610467;230;26816;-71
2022/07/15 01:12:29;;;;;;;0.85;0.60;;;13.70;65.60;;;;;;610350;236;26604;-71
2022/07/15 01:14:56;;;;;;;0.95;0.82;;;13.70;66.00;;;;;;610137;235;27046;-71
2022/07/15 01:17:23;;;;;;;2.83;0.80;;;13.70;66.40;;;;;;610165;236;26615;-71
2022/07/15 01:19:50;;;;;;;1.35;0.80;;;13.60;66.90;;;;;;610281;236;27346;-71
2022/07/15 01:22:18;;;;;;;3.17;0.90;;;13.60;67.50;;;;;;610175;230;26665;-71
2022/07/15 01:24:45;;;;;;;2.05;1.02;;;13.60;68.10;;;;;;610140;236;26904;-71
2022/07/15 01:27:12;;;;;;;0.70;0.70;;;13.60;68.70;;;;;;610169;235;26607;-71
2022/07/15 01:29:39;;;;;;;1.10;0.80;;;13.50;69.20;;;;;;610234;236;26873;-71
2022/07/15 01:32:07;;;;;;;2.85;0.80;;;13.40;70.50;;;;;;609866;235;26638;-71
2022/07/15 01:34:35;;;;;;;1.37;0.70;;;13.40;71.50;;;;;;609892;235;26588;-71
2022/07/15 01:37:03;;;;;;;1.62;0.80;;;13.40;72.30;;;;;;609876;235;26597;-71
2022/07/15 01:39:31;;;;;;;1.25;0.80;;;13.30;72.90;;;;;;609904;235;26591;-71
2022/07/15 01:41:58;;;;;;;1.10;0.90;;;13.30;72.90;;;;;;609828;235;26609;-71
2022/07/15 01:44:25;;;;;;;0.98;0.70;;;13.40;74.20;;;;;;609853;236;26584;-71
2022/07/15 01:46:52;;;;;;;1.45;0.62;;;13.30;73.20;;;;;;609883;235;26828;-71
2022/07/15 01:49:21;;;;;;;2.95;1.10;;;13.30;73.20;;;;;;609836;236;26577;-71
2022/07/15 01:51:50;;;;;;;1.48;1.05;;;13.40;73.20;;;;;;609841;235;26609;-71
2022/07/15 01:54:16;;;;;;;1.10;1.00;;;13.30;73.10;;;;;;610181;235;26811;-71
2022/07/15 01:56:43;;;;;;;1.85;0.70;;;13.30;73.30;;;;;;610254;235;26553;-71
2022/07/15 01:59:10;;;;;;;0.93;0.73;;;13.30;73.30;;;;;;610285;235;26553;-71
2022/07/15 02:01:38;;;;;;;0.80;0.80;;;13.20;73.60;;;;;;610211;235;26581;-71
2022/07/15 02:04:06;;;;;;;0.85;0.70;;;13.10;73.80;;;;;;610267;236;26576;-71
2022/07/15 02:06:34;;;;;;;1.48;0.90;;;13.10;74.10;;;;;;611222;233;26551;-71
2022/07/15 02:09:01;;;;;;;0.85;0.70;;;13.10;74.10;;;;;;611522;234;26561;-71
2022/07/15 02:11:29;;;;;;;1.17;0.80;;;13.10;74.10;;;;;;611207;230;26631;-71
2022/07/15 02:13:59;;;;;;;1.10;1.00;;;13.10;73.70;;;;;;611113;235;26891;-71
2022/07/15 02:16:23;;;;;;;0.70;0.70;;;13.10;73.70;;;;;;610681;235;26568;-71
2022/07/15 02:18:50;;;;;;;0.62;0.60;;;13.10;73.60;;;;;;610639;235;26849;-71
2022/07/15 02:21:17;;;;;;;0.85;0.70;;;13.00;73.50;;;;;;610439;235;26608;-71
2022/07/15 02:23:45;;;;;;;1.52;1.00;;;13.00;73.70;;;;;;610377;235;26842;-71
2022/07/15 02:26:12;;;;;;;0.80;0.80;;;13.00;73.80;;;;;;610192;236;26658;-71
2022/07/15 02:28:39;;;;;;;1.62;0.80;;;13.00;74.30;;;;;;610169;236;26875;-71
2022/07/15 02:31:06;;;;;;;2.10;0.80;;;13.00;74.50;;;;;;610143;236;26677;-72
2022/07/15 02:33:33;;;;;;;0.77;0.77;;;13.00;74.60;;;;;;610185;236;26597;-71
2022/07/15 02:36:02;;;;;;;0.80;0.80;;;12.90;75.20;;;;;;610182;236;26623;-71
2022/07/15 02:38:29;;;;;;;3.03;0.93;;;12.90;75.40;;;;;;610146;236;26631;-72
2022/07/15 02:40:57;;;;;;;0.55;0.55;;;12.90;75.80;;;;;;610195;236;26648;-72
2022/07/15 02:43:25;;;;;;;2.08;0.82;;;12.90;75.90;;;;;;609881;235;26565;-72
2022/07/15 02:45:53;;;;;;;1.95;1.00;;;12.90;76.20;;;;;;609934;236;26619;-71
2022/07/15 02:48:21;;;;;;;1.27;0.73;;;12.80;76.10;;;;;;609918;236;26826;-72
2022/07/15 02:50:48;;;;;;;2.75;0.80;;;12.90;76.30;;;;;;609750;236;26645;-72
2022/07/15 02:53:15;;;;;;;2.17;0.95;;;12.80;76.50;;;;;;609929;235;26959;-72
2022/07/15 02:55:42;;;;;;;4.10;1.02;;;12.80;76.80;;;;;;609911;235;26581;-71
2022/07/15 02:58:09;;;;;;;1.30;0.82;;;12.80;77.30;;;;;;609890;235;26827;-72
2022/07/15 03:00:36;;;;;;;0.85;0.80;;;12.80;77.60;;;;;;609881;235;26595;-71
2022/07/15 03:03:04;;;;;;;3.00;0.85;;;12.80;78.10;;;;;;609910;236;27303;-71
2022/07/15 03:05:31;;;;;;;1.58;1.00;;;12.80;78.20;;;;;;609840;236;26577;-72
2022/07/15 03:07:58;;;;;;;2.70;1.10;;;12.80;78.50;;;;;;609886;236;26634;-72
2022/07/15 03:10:26;;;;;;;1.73;1.02;;;12.70;79.60;;;;;;609897;236;26581;-72
2022/07/15 03:12:53;;;;;;;1.80;0.90;;;12.70;79.60;;;;;;609859;236;26581;-71
2022/07/15 03:15:20;;;;;;;1.00;0.80;;;12.70;80.10;;;;;;609896;236;26863;-72
2022/07/15 03:17:47;;;;;;;2.50;1.15;;;12.70;80.40;;;;;;610583;231;26630;-71
2022/07/15 03:20:15;;;;;;;1.23;0.85;;;12.70;80.60;;;;;;611257;235;27099;-71
2022/07/15 03:22:42;;;;;;;2.35;0.80;;;12.80;80.90;;;;;;610854;235;26648;-72
2022/07/15 03:25:09;;;;;;;2.12;1.05;;;12.70;81.20;;;;;;610733;235;26840;-71
2022/07/15 03:27:37;;;;;;;2.60;1.10;;;12.70;81.30;;;;;;610544;235;26576;-71
2022/07/15 03:30:05;;;;;;;1.40;0.90;;;12.80;81.40;;;;;;610710;236;26555;-71
2022/07/15 03:32:32;;;;;;;1.55;1.00;;;12.70;81.80;;;;;;610811;236;26576;-71
2022/07/15 03:34:59;;;;;;;2.50;0.80;;;12.70;81.80;;;;;;610744;236;26794;-71
2022/07/15 03:37:26;;;;;;;1.77;1.05;;;12.70;82.10;;;;;;610543;235;26588;-71
2022/07/15 03:39:53;;;;;;;2.03;0.90;;;12.70;82.30;;;;;;610539;235;26801;-71
2022/07/15 03:42:21;;;;;;;2.50;1.00;;;12.80;82.40;;;;;;610518;236;26628;-72
2022/07/15 03:44:48;;;;;;;1.02;0.80;;;12.80;82.70;;;;;;610398;236;26845;-71
2022/07/15 03:47:15;;;;;;;2.28;1.00;;;12.80;82.90;;;;;;610191;236;26621;-71
2022/07/15 03:49:42;;;;;;;3.22;1.10;;;12.80;82.70;;;;;;610154;236;26869;-72
2022/07/15 03:52:10;;;;;;;2.20;0.88;;;12.90;82.70;;;;;;610114;235;26643;-72
2022/07/15 03:54:38;;;;;;;2.17;1.20;;;12.90;82.40;;;;;;609993;236;26603;-72
2022/07/15 03:57:06;;;;;;;2.45;0.90;;;13.00;82.50;;;;;;609891;236;26573;-72
2022/07/15 03:59:34;;;;;;;2.50;1.02;;;13.00;82.20;;;;;;609888;235;26664;-72
2022/07/15 04:02:02;;;;;;;1.00;1.00;;;13.10;81.40;;;;;;609815;235;26612;-72
2022/07/15 04:04:30;;;;;;;1.75;1.02;;;13.30;81.60;;;;;;609876;236;26636;-68
2022/07/15 04:06:57;;;;;;;3.80;1.20;;;13.20;81.40;;;;;;609833;236;27174;-67
2022/07/15 04:09:25;;;;;;;3.10;1.00;;;13.30;80.80;;;;;;609763;236;26946;-67
2022/07/15 04:11:53;;;;;;;2.92;0.90;;;13.50;80.00;;;;;;609753;236;26649;-67
2022/07/15 04:14:22;;;;;;;2.62;1.00;;;13.60;79.20;;;;;;609746;235;26851;-68
2022/07/15 04:16:47;;;;;;;1.77;0.90;;;13.60;79.10;;;;;;609641;236;26611;-68
2022/07/15 04:19:14;;;;;;;1.15;1.05;;;13.70;78.90;;;;;;609774;236;26887;-66
2022/07/15 04:21:41;;;;;;;2.60;1.00;;;13.80;78.30;;;;;;609719;236;26634;-66
2022/07/15 04:24:09;;;;;;;1.90;0.93;;;13.80;78.30;;;;;;609821;236;26846;-66
2022/07/15 04:26:36;;;;;;;2.47;1.12;;;13.80;78.30;;;;;;609753;236;26593;-66
2022/07/15 04:29:03;;;;;;;3.08;1.10;;;13.70;78.30;;;;;;610193;233;26840;-66
2022/07/15 04:31:30;;;;;;;2.10;1.27;;;13.70;78.40;;;;;;611157;235;26630;-67
2022/07/15 04:33:58;;;;;;;1.48;1.23;;;13.50;78.90;;;;;;610792;235;26651;-66
2022/07/15 04:36:25;;;;;;;2.17;1.08;;;13.50;79.70;;;;;;610659;235;26579;-67
2022/07/15 04:38:52;;;;;;;1.52;1.05;;;13.40;80.30;;;;;;610489;235;26829;-67
2022/07/15 04:41:19;;;;;;;2.72;1.20;;;13.30;81.30;;;;;;610301;235;26592;-66
2022/07/15 04:43:47;;;;;;;1.95;0.88;;;13.30;81.00;;;;;;610346;235;27235;-66
2022/07/15 04:46:14;;;;;;;2.60;1.05;;;13.30;81.10;;;;;;610397;235;26579;-67
2022/07/15 04:51:14;;;;;;;1.62;0.85;;;13.50;80.40;;;;;;609979;236;26682;-66
2022/07/15 04:53:41;;;;;;;1.70;1.17;;;13.60;80.70;;;;;;610105;235;26628;-66
2022/07/15 04:56:08;;;;;;;3.65;1.17;;;13.80;79.80;;;;;;610069;236;26888;-66
2022/07/15 04:58:36;;;;;;;2.40;1.23;;;13.80;79.20;;;;;;610098;236;26616;-66
2022/07/15 05:01:03;;;;;;;2.60;1.50;;;13.90;79.20;;;;;;610001;236;27400;-66
2022/07/15 05:03:30;;;;;;;3.20;1.10;;;14.00;78.30;;;;;;610097;236;26623;-66
2022/07/15 05:05:57;;;;;;;2.03;1.30;;;14.10;77.90;;;;;;609885;236;26866;-67
2022/07/15 05:08:25;;;;;;;2.45;1.10;;;14.10;77.40;;;;;;609729;236;26580;-66
2022/07/15 05:10:52;;;;;;;2.17;1.10;;;14.10;76.90;;;;;;609739;236;26787;-67
2022/07/15 05:13:19;;;;;;;1.85;1.17;;;13.90;77.40;;;;;;609815;236;26590;-67
2022/07/15 05:15:46;;;;;;;2.78;1.27;;;13.90;77.70;;;;;;609748;235;26856;-67
2022/07/15 05:18:14;;;;;;;1.50;1.10;;;13.80;77.90;;;;;;609785;236;26573;-67
2022/07/15 05:20:42;;;;;;;1.12;1.02;;;13.90;77.90;;;;;;607805;236;26670;-67
2022/07/15 05:23:10;;;;;;;2.17;0.98;;;14.10;77.40;;;;;;603601;235;26685;-67
2022/07/15 05:25:38;;;;;;;5.80;1.50;;;14.00;77.40;;;;;;601407;237;26656;-66
2022/07/15 05:28:06;;;;;;;2.70;1.27;;;13.90;78.10;;;;;;601484;237;26632;-66
2022/07/15 05:30:37;;;;;;;3.12;1.10;;;14.00;78.50;;;;;;601453;239;26643;-66
2022/07/15 05:33:02;;;;;;;2.58;1.00;;;14.10;77.60;;;;;;603237;236;26663;-67
2022/07/15 05:35:29;;;;;;;3.47;1.27;;;14.10;77.60;;;;;;606373;232;26888;-67
2022/07/15 05:37:56;;;;;;;2.53;1.23;;;14.30;76.90;;;;;;604943;235;26830;-67
2022/07/15 05:40:23;;;;;;;4.35;1.00;;;14.40;76.40;;;;;;604881;235;26642;-68
2022/07/15 05:42:51;;;;;;;2.83;1.27;;;14.40;75.70;;;;;;609130;234;26878;-67
2022/07/15 05:45:18;;;;;;;4.05;1.30;;;14.40;76.00;;;;;;605097;230;26596;-67
2022/07/15 05:47:48;;;;;;;3.25;1.30;;;14.50;74.40;;;;;;604717;235;26592;-67
2022/07/15 05:50:16;;;;;;;4.32;1.12;;;14.80;73.10;;;;;;605144;235;26683;-72
2022/07/15 05:52:43;;;;;;;2.80;1.10;;;14.70;72.70;;;;;;603360;237;26689;-71
2022/07/15 05:55:10;;;;;;;4.18;1.10;;;14.90;72.30;;;;;;604212;236;26650;-72
2022/07/15 05:57:37;;;;;;;2.55;1.00;;;14.90;71.70;;;;;;610218;235;26900;-72
2022/07/15 06:00:07;;;;;;;2.90;0.98;;;15.10;70.00;;;;;;604323;232;26589;-73
2022/07/15 06:02:34;;;;;;;3.80;2.00;;;15.20;69.90;;;;;;605226;235;26612;-73
2022/07/15 06:05:01;;;;;;;2.03;1.45;;;15.50;68.50;;;;;;605607;236;26593;-72
2022/07/15 06:07:29;;;;;;;5.12;1.35;;;15.90;64.90;;;;;;604513;236;26607;-72
2022/07/15 06:09:57;;;;;;;1.83;1.00;;;16.10;63.60;;;;;;603519;235;26585;-72
2022/07/15 06:12:25;;;;;;;3.70;1.00;;;16.30;63.00;;;;;;605309;236;26609;-72
2022/07/15 06:14:53;;;;;;;1.75;1.00;;;16.30;62.40;;;;;;606235;235;26588;-72
2022/07/15 06:17:20;;;;;;;2.62;1.20;;;16.30;62.00;;;;;;602976;237;27306;-72
2022/07/15 06:19:48;;;;;;;3.42;1.35;;;16.00;63.20;;;;;;605117;232;26629;-72
2022/07/15 06:22:15;;;;;;;2.53;1.10;;;16.10;62.40;;;;;;605940;235;26652;-72
2022/07/15 06:24:42;;;;;;;2.40;0.90;;;16.30;62.50;;;;;;604278;235;26853;-70
2022/07/15 06:27:10;;;;;;;2.87;1.20;;;16.30;61.30;;;;;;603612;234;26661;-70
2022/07/15 06:29:39;;;;;;;3.87;1.37;;;16.50;60.90;;;;;;604654;235;26850;-70
2022/07/15 06:32:07;;;;;;;4.37;1.10;;;16.50;61.20;;;;;;603568;235;26947;-70
2022/07/15 06:34:34;;;;;;;5.62;1.20;;;16.60;60.60;;;;;;604615;236;26633;-70
2022/07/15 06:37:01;;;;;;;3.12;1.17;;;16.90;59.70;;;;;;604562;235;26655;-70
2022/07/15 06:39:29;;;;;;;2.87;0.93;;;16.90;59.40;;;;;;604381;235;26898;-68
2022/07/15 06:41:56;;;;;;;5.00;1.50;;;16.80;59.30;;;;;;606612;235;26626;-71
2022/07/15 06:44:25;;;;;;;2.35;0.90;;;16.70;59.70;;;;;;605041;235;26642;-69
2022/07/15 06:46:52;;;;;;;3.05;1.27;;;16.70;59.70;;;;;;605104;235;26830;-71
2022/07/15 06:49:19;;;;;;;1.27;0.95;;;16.80;59.50;;;;;;602913;234;26644;-69
2022/07/15 06:51:47;;;;;;;2.40;1.23;;;16.70;59.70;;;;;;602089;233;26920;-70
2022/07/15 06:54:14;;;;;;;3.75;1.30;;;16.60;59.90;;;;;;606212;236;26614;-71
2022/07/15 06:56:41;;;;;;;4.53;1.10;;;16.60;60.00;;;;;;608107;235;26649;-70
2022/07/15 06:59:08;;;;;;;3.58;1.20;;;16.70;59.70;;;;;;610714;235;26835;-70
2022/07/15 07:01:36;;;;;;;3.75;1.00;;;16.80;59.50;;;;;;606195;235;26648;-71
2022/07/15 07:04:03;;;;;;;4.78;1.00;;;17.00;59.10;;;;;;602069;239;26843;-72
2022/07/15 07:06:30;;;;;;;2.25;1.20;;;17.00;58.50;;;;;;603773;236;26580;-70
2022/07/15 07:08:57;;;;;;;2.45;1.02;;;17.10;58.20;;;;;;602098;238;27135;-71
2022/07/15 07:11:25;;;;;;;4.78;1.20;;;17.40;57.60;;;;;;601809;237;26620;-72
2022/07/15 07:13:53;;;;;;;3.20;0.98;;;17.40;57.70;;;;;;608681;236;26616;-71
2022/07/15 07:16:21;;;;;;;1.40;1.05;;;17.50;57.30;;;;;;601778;237;26586;-71
2022/07/15 07:18:50;;;;;;;2.58;1.10;;;17.70;56.40;;;;;;602196;238;26587;-72
2022/07/15 07:21:16;;;;;;;3.15;1.10;;;17.70;56.40;;;;;;608441;236;26715;-72
2022/07/15 07:23:43;;;;;;;2.78;1.15;;;17.60;55.70;;;;;;609745;235;26636;-71
2022/07/15 07:26:11;;;;;;;2.45;1.12;;;17.50;55.90;;;;;;602079;237;27054;-72
2022/07/15 07:28:40;;;;;;;5.57;1.05;;;17.60;55.80;;;;;;602049;237;26542;-72
2022/07/15 07:31:06;;;;;;;4.37;1.25;;;17.70;55.80;;;;;;601843;237;26639;-71
2022/07/15 07:33:33;;;;;;;4.15;1.10;;;17.80;55.60;;;;;;602465;237;26919;-71
2022/07/15 07:36:00;;;;;;;1.42;0.90;;;17.80;55.40;;;;;;601881;237;26598;-73
2022/07/15 07:38:27;;;;;;;1.62;0.90;;;17.40;55.30;;;;;;601871;237;26599;-70
2022/07/15 07:40:55;;;;;;;2.78;0.90;;;17.60;55.40;;;;;;604324;236;26633;-70
2022/07/15 07:43:24;;;;;;;2.60;1.00;;;17.80;55.20;;;;;;608461;236;26625;-71
2022/07/15 07:45:51;;;;;;;2.33;1.10;;;17.90;54.30;;;;;;604623;235;26578;-70
2022/07/15 07:48:19;;;;;;;2.95;1.08;;;18.20;53.60;;;;;;601481;238;26630;-70
2022/07/15 07:50:47;;;;;;;2.30;1.10;;;18.20;53.20;;;;;;605539;235;26620;-71
2022/07/15 07:53:14;;;;;;;3.33;1.17;;;18.20;53.10;;;;;;604208;235;26573;-71
2022/07/15 07:55:41;;;;;;;4.30;1.42;;;17.80;53.30;;;;;;601445;237;26673;-74
2022/07/15 07:58:08;;;;;;;2.53;0.98;;;17.90;53.70;;;;;;603395;236;26629;-70
2022/07/15 08:00:36;;;;;;;2.85;1.05;;;18.10;53.40;;;;;;607669;236;26907;-70
2022/07/15 08:03:03;;;;;;;5.10;1.10;;;18.10;52.60;;;;;;604514;237;26601;-70
2022/07/15 08:05:31;;;;;;;3.40;1.08;;;18.10;52.80;;;;;;603679;236;26601;-70
2022/07/15 08:08:07;;;;;;;2.45;1.20;;;18.30;52.30;;;;;;606116;230;26589;-71
2022/07/15 08:10:35;;;;;;;3.22;1.20;;;18.30;51.90;;;;;;610789;235;26588;-71
2022/07/15 08:13:02;;;;;;;2.72;0.93;;;18.50;51.40;;;;;;605701;235;26899;-70
2022/07/15 08:15:29;;;;;;;3.75;1.05;;;18.10;51.00;;;;;;602112;238;26581;-70
2022/07/15 08:17:56;;;;;;;2.53;0.90;;;17.90;51.20;;;;;;602488;238;26594;-71
2022/07/15 08:20:24;;;;;;;3.30;0.90;;;18.10;50.10;;;;;;603620;237;26581;-71
2022/07/15 08:22:58;;;;;;;4.03;0.90;;;18.30;49.90;;;;;;603295;237;26601;-71
2022/07/15 08:25:20;;;;;;;2.40;1.08;;;18.00;49.30;;;;;;602309;236;26582;-71
2022/07/15 08:27:48;;;;;;;1.92;1.12;;;17.80;50.30;;;;;;605782;235;26585;-73
2022/07/15 08:30:15;;;;;;;1.55;1.08;;;17.80;50.00;;;;;;604071;236;26610;-73
2022/07/15 08:32:42;;;;;;;2.40;0.90;;;17.80;50.40;;;;;;602735;236;26610;-71
2022/07/15 08:35:10;;;;;;;2.85;0.95;;;18.20;49.90;;;;;;608887;235;26632;-71
2022/07/15 08:37:38;;;;;;;3.37;0.90;;;18.20;49.10;;;;;;606054;235;26833;-71
2022/07/15 08:40:08;;;;;;;2.17;0.90;;;18.30;48.90;;;;;;602735;236;26585;-71
2022/07/15 08:42:33;;;;;;;2.90;0.82;;;18.40;47.50;;;;;;606492;236;26613;-73
2022/07/15 08:45:00;;;;;;;4.03;0.95;;;18.60;47.50;;;;;;602033;236;26863;-74
2022/07/15 08:47:28;;;;;;;1.35;0.57;;;18.50;47.50;;;;;;607945;236;26597;-73
2022/07/15 08:49:56;;;;;;;2.58;1.27;;;18.60;47.50;;;;;;604438;236;26831;-70
2022/07/15 08:52:25;;;;;;;6.53;1.70;;;18.60;47.50;;;;;;603456;237;26618;-71
2022/07/15 08:54:54;;;;;;;5.28;1.67;;;18.60;47.50;;;;;;601525;237;26649;-69
2022/07/15 08:57:20;;;;;;;8.27;1.92;;;18.60;47.50;;;;;;601480;237;26625;-70
2022/07/15 08:59:48;;;;;;;3.15;1.70;;;18.40;47.80;;;;;;604693;236;26595;-70
2022/07/15 09:02:16;;;;;;;4.93;1.42;;;18.70;47.80;;;;;;608327;235;26582;-70
2022/07/15 09:04:56;;;;;;;2.53;1.55;;;18.70;47.70;;;;;;604357;238;26577;-73
2022/07/15 09:07:23;;;;;;;3.95;1.12;;;18.60;48.00;;;;;;607125;236;26587;-70
2022/07/15 09:09:51;;;;;;;7.43;1.70;;;18.60;47.60;;;;;;605936;235;26670;-70
2022/07/15 09:12:18;;;;;;;3.58;1.45;;;18.60;47.90;;;;;;602803;237;26616;-71
2022/07/15 09:14:45;;;;;;;3.00;1.25;;;18.90;47.90;;;;;;606129;232;26863;-70
2022/07/15 09:17:20;;;;;;;4.40;1.20;;;18.80;48.10;;;;;;611923;233;26611;-70
2022/07/15 09:19:56;;;;;;;2.12;1.12;;;18.90;48.10;;;;;;606789;235;26846;-73
2022/07/15 09:22:24;;;;;;;2.10;0.98;;;19.10;48.00;;;;;;609515;235;26600;-73
2022/07/15 09:25:07;;;;;;;3.08;1.20;;;19.30;47.90;;;;;;607510;235;26681;-73
2022/07/15 09:27:36;;;;;;;2.55;0.93;;;19.30;47.90;;;;;;602645;238;27190;-74
2022/07/15 09:37:55;;;;;;;2.85;1.10;;;19.20;47.30;;;;;;603099;235;26586;-73
2022/07/15 09:40:22;;;;;;;3.00;1.12;;;19.00;47.30;;;;;;607589;234;26843;-73
2022/07/15 09:43:03;;;;;;;2.30;1.40;;;19.20;47.10;;;;;;603301;237;26610;-72
2022/07/15 09:45:29;;;;;;;3.28;0.90;;;19.60;46.00;;;;;;608727;236;26668;-73
2022/07/15 09:48:08;;;;;;;4.05;1.20;;;19.60;46.00;;;;;;608965;235;26661;-72
2022/07/15 09:50:35;;;;;;;3.15;1.10;;;19.80;46.20;;;;;;606613;234;26596;-73
2022/07/15 09:53:03;;;;;;;3.75;1.00;;;19.80;46.00;;;;;;606893;234;27012;-73
2022/07/15 09:55:30;;;;;;;5.15;1.52;;;20.20;45.70;;;;;;608409;236;26553;-74
2022/07/15 09:57:59;;;;;;;8.32;4.78;;;20.30;45.60;;;;;;603083;237;27082;-72
2022/07/15 10:00:25;;;;;;;6.93;5.18;;;20.10;45.50;;;;;;607815;236;26620;-72
2022/07/15 10:02:52;;;;;;;13.35;7.57;;;20.10;45.90;;;;;;611301;235;26673;-73
2022/07/15 10:05:19;;;;;;;10.93;7.43;;;20.50;45.60;;;;;;608847;235;26585;-74
2022/07/15 10:07:46;;;;;;;6.53;5.53;;;20.40;45.40;;;;;;602471;237;26661;-73
2022/07/15 10:10:14;;;;;;;6.57;4.10;;;20.40;45.60;;;;;;603942;235;26642;-74
2022/07/15 10:13:05;;;;;;;7.93;4.50;;;20.60;45.20;;;;;;604007;236;26903;-74
2022/07/15 10:15:31;;;;;;;70.32;16.65;;;20.70;44.70;;;;;;609266;235;26623;-74
2022/07/15 10:18:10;;;;;;;129.40;26.55;;;20.80;44.10;;;;;;603067;235;26585;-74
2022/07/15 10:20:39;;;;;;;147.13;30.05;;;20.30;44.20;;;;;;601502;239;26644;-74
2022/07/15 10:23:12;;;;;;;108.80;25.83;;;20.20;44.10;;;;;;609968;235;26683;-71
2022/07/15 10:26:06;;;;;;;84.47;20.67;;;20.50;44.70;;;;;;608119;236;26556;-71
2022/07/15 10:28:42;;;;;;;85.82;20.17;;;20.50;44.70;;;;;;602607;234;26652;-71
2022/07/15 10:31:14;;;;;;;88.18;20.08;;;20.20;45.20;;;;;;602522;237;26602;-71
2022/07/15 10:33:41;;;;;;;83.40;18.42;;;20.20;45.20;;;;;;605478;236;26848;-71
2022/07/15 10:36:08;;;;;;;82.00;18.08;;;20.30;45.30;;;;;;608164;234;26588;-71
2022/07/15 10:38:37;;;;;;;38.05;12.32;;;20.20;44.90;;;;;;612389;234;26631;-71
2022/07/15 10:41:14;;;;;;;33.05;9.02;;;20.10;44.80;;;;;;609886;235;26592;-71
2022/07/15 10:43:45;;;;;;;31.75;8.35;;;20.10;44.80;;;;;;602058;235;26596;-71
2022/07/15 10:46:25;;;;;;;33.15;9.07;;;19.90;45.20;;;;;;603148;235;26791;-71
2022/07/15 10:49:11;;;;;;;26.87;8.27;;;19.90;45.20;;;;;;602691;236;26796;-71
2022/07/15 10:51:46;;;;;;;19.42;6.78;;;19.60;45.30;;;;;;608990;233;26845;-70
2022/07/15 10:54:44;;;;;;;17.95;6.15;;;19.50;45.40;;;;;;607296;236;27236;-69
2022/07/15 10:57:13;;;;;;;10.55;4.65;;;19.80;44.90;;;;;;608898;234;26814;-70
2022/07/15 10:59:41;;;;;;;9.45;3.70;;;20.00;44.40;;;;;;602084;235;26589;-69
2022/07/15 11:02:14;;;;;;;10.98;3.30;;;20.40;43.80;;;;;;601631;238;26847;-69
2022/07/15 11:04:42;;;;;;;8.27;2.62;;;20.50;43.40;;;;;;601568;239;26972;-72
2022/07/15 11:07:24;;;;;;;7.18;2.70;;;20.60;43.20;;;;;;598306;233;26577;-70
2022/07/15 11:09:56;;;;;;;5.57;3.50;;;21.00;42.70;;;;;;603625;234;26565;-73
2022/07/15 11:12:44;;;;;;;6.18;3.22;;;20.70;42.40;;;;;;608726;233;26633;-73
2022/07/15 11:15:12;;;;;;;5.57;4.07;;;20.70;42.40;;;;;;611335;234;26648;-73
2022/07/15 11:17:40;;;;;;;9.70;6.30;;;20.40;43.10;;;;;;606284;234;26820;-74
2022/07/15 11:20:11;;;;;;;41.30;34.10;;;20.10;43.30;;;;;;607440;236;26555;-73
2022/07/15 11:22:41;;;;;;;150.15;133.37;;;21.00;43.50;;;;;;608002;236;26660;-73
2022/07/15 11:25:23;;;;;;;272.37;240.70;;;21.00;43.10;;;;;;604800;235;26819;-71
2022/07/15 11:28:11;;;;;;;397.40;327.38;;;20.70;42.20;;;;;;605420;236;26624;-72
2022/07/15 11:30:41;;;;;;;550.47;482.27;;;20.30;42.40;;;;;;606633;235;26826;-72
2022/07/15 11:33:12;;;;;;;563.95;492.92;;;20.20;42.80;;;;;;602438;237;26592;-72
2022/07/15 11:35:43;;;;;;;571.63;504.33;;;20.00;43.20;;;;;;603196;235;26842;-72
2022/07/15 11:38:09;;;;;;;594.55;528.40;;;20.10;44.00;;;;;;607282;233;26863;-72
2022/07/15 11:45:42;;;;;;;711.55;633.33;;;20.10;43.70;;;;;;602403;237;26582;-72
2022/07/15 11:48:09;;;;;;;715.28;637.03;;;20.30;43.70;;;;;;602601;234;26614;-72
2022/07/15 11:50:37;;;;;;;770.80;686.83;;;20.80;43.50;;;;;;605085;236;26803;-71
2022/07/15 11:53:11;;;;;;;762.20;680.33;;;21.20;42.20;;;;;;601939;236;27588;-71
2022/07/15 11:55:48;;;;;;;724.20;647.25;;;21.10;42.20;;;;;;604771;236;26646;-73
2022/07/15 11:58:15;;;;;;;842.92;750.80;;;21.20;42.50;;;;;;605998;236;26583;-72
2022/07/15 12:00:48;;;;;;;821.45;732.10;;;21.00;42.60;;;;;;604069;236;27055;-72
2022/07/15 12:03:15;;;;;;;811.42;724.55;;;20.40;43.60;;;;;;604085;236;26790;-72
2022/07/15 12:05:43;;;;;;;840.10;750.20;;;20.40;43.70;;;;;;604830;235;26578;-72
2022/07/15 12:08:10;;;;;;;862.90;768.90;;;20.30;44.50;;;;;;603003;234;26588;-72
2022/07/15 12:10:39;;;;;;;856.22;764.60;;;20.60;43.60;;;;;;604637;230;26571;-73
2022/07/15 12:13:06;;;;;;;768.33;687.65;;;20.60;43.60;;;;;;604772;237;26602;-73
2022/07/15 12:15:33;;;;;;;814.38;728.25;;;21.00;43.20;;;;;;602360;237;27212;-73
2022/07/15 12:18:00;;;;;;;796.60;712.58;;;20.90;43.10;;;;;;601936;236;26631;-73
2022/07/15 12:20:28;;;;;;;783.62;701.50;;;21.80;42.10;;;;;;604828;236;26593;-72
2022/07/15 12:23:01;;;;;;;679.05;609.15;;;22.40;42.10;;;;;;601437;237;26660;-73
2022/07/15 12:25:28;;;;;;;730.60;654.22;;;22.30;41.60;;;;;;609116;235;26891;-73
2022/07/15 12:27:55;;;;;;;710.28;636.33;;;22.60;40.60;;;;;;604138;236;26778;-71
2022/07/15 12:30:32;;;;;;;668.13;599.38;;;22.30;40.00;;;;;;604231;232;26582;-75
2022/07/15 12:33:17;;;;;;;667.60;598.92;;;22.20;39.90;;;;;;604183;238;26622;-73
2022/07/15 12:35:44;;;;;;;657.62;589.15;;;22.50;39.90;;;;;;604229;237;26582;-74
2022/07/15 12:38:11;;;;;;;643.58;577.03;;;21.90;40.10;;;;;;604223;237;27253;-73
2022/07/15 12:40:39;;;;;;;625.95;561.12;;;21.60;40.30;;;;;;601850;236;26586;-74
2022/07/15 12:43:08;;;;;;;620.67;556.25;;;20.60;41.80;;;;;;604307;238;26609;-73
2022/07/15 12:45:35;;;;;;;604.30;541.17;;;20.80;41.90;;;;;;604464;238;26612;-73
2022/07/15 12:48:04;;;;;;;547.42;489.95;;;20.70;41.80;;;;;;604616;238;26593;-73
2022/07/15 12:50:31;;;;;;;518.87;464.10;;;20.90;41.80;;;;;;605073;235;26565;-74
2022/07/15 12:52:58;;;;;;;514.17;459.20;;;20.80;42.30;;;;;;605838;237;26855;-73
2022/07/15 12:55:25;;;;;;;530.72;474.40;;;21.00;42.40;;;;;;605471;237;26659;-73
2022/07/15 12:57:53;;;;;;;506.77;452.77;;;21.00;42.60;;;;;;605342;237;26579;-74
2022/07/15 13:00:21;;;;;;;482.05;429.95;;;21.50;42.30;;;;;;603612;237;26600;-74
2022/07/15 13:03:14;;;;;;;426.23;377.73;;;22.00;41.60;;;;;;605057;238;26872;-72